createdAt,value
2023-05-08T00:02:16.774Z,10.40
2023-05-08T00:05:18.417Z,11.15
2023-05-08T00:08:19.971Z,9.65
2023-05-08T00:11:22.528Z,9.88
2023-05-08T00:14:24.165Z,9.88
2023-05-08T00:17:26.430Z,9.63
2023-05-08T00:20:28.997Z,9.85
2023-05-08T00:23:30.571Z,10.10
2023-05-08T00:26:33.835Z,9.20
2023-05-08T00:29:36.001Z,11.43
2023-05-08T00:32:37.846Z,10.18
2023-05-08T00:35:42.312Z,9.90
2023-05-08T00:38:43.975Z,10.73
2023-05-08T00:41:45.965Z,10.93
2023-05-08T00:44:48.098Z,11.30
2023-05-08T00:47:51.666Z,12.70
2023-05-08T00:50:55.492Z,12.13
2023-05-08T00:53:58.919Z,11.13
2023-05-08T00:57:01.554Z,11.93
2023-05-08T01:00:05.526Z,11.68
2023-05-08T01:03:09.507Z,13.40
2023-05-08T01:06:12.024Z,14.17
2023-05-08T01:09:13.666Z,16.25
2023-05-08T01:12:29.758Z,14.82
2023-05-08T01:15:38.419Z,13.77
2023-05-08T01:18:49.034Z,14.97
2023-05-08T01:22:06.057Z,14.93
2023-05-08T01:25:46.375Z,14.88
2023-05-08T01:29:20.792Z,12.98
2023-05-08T01:32:36.444Z,17.13
2023-05-08T01:35:51.444Z,13.93
2023-05-08T01:39:22.180Z,14.75
2023-05-08T01:42:56.382Z,13.93
2023-05-08T01:46:01.949Z,13.80
2023-05-08T01:49:30.716Z,15.00
2023-05-08T01:52:46.775Z,14.07
2023-05-08T01:55:51.472Z,14.23
2023-05-08T01:58:57.970Z,15.05
2023-05-08T02:02:02.440Z,14.57
2023-05-08T02:05:06.780Z,15.13
2023-05-08T02:08:11.762Z,13.88
2023-05-08T02:11:15.435Z,15.13
2023-05-08T02:14:20.156Z,15.43
2023-05-08T02:17:24.551Z,15.10
2023-05-08T02:20:28.684Z,16.95
2023-05-08T02:23:32.916Z,16.20
2023-05-08T02:26:36.850Z,16.08
2023-05-08T02:29:39.855Z,15.10
2023-05-08T02:32:45.050Z,17.45
2023-05-08T02:35:49.399Z,16.13
2023-05-08T02:38:54.661Z,16.13
2023-05-08T02:41:58.449Z,14.30
2023-05-08T02:45:00.222Z,15.20
2023-05-08T02:48:37.174Z,17.08
2023-05-08T02:51:58.004Z,15.45
2023-05-08T02:55:07.624Z,18.55
2023-05-08T02:58:22.317Z,16.60
2023-05-08T03:01:35.805Z,14.90
2023-05-08T03:04:44.177Z,15.40
2023-05-08T03:07:51.734Z,16.52
2023-05-08T03:10:57.823Z,17.80
2023-05-08T03:14:02.745Z,17.33
2023-05-08T03:17:07.592Z,16.50
2023-05-08T03:20:14.977Z,18.85
2023-05-08T03:23:20.032Z,16.27
2023-05-08T03:26:22.723Z,16.98
2023-05-08T03:29:26.416Z,18.48
2023-05-08T03:32:33.920Z,16.30
2023-05-08T03:35:41.524Z,17.10
2023-05-08T03:38:44.843Z,17.53
2023-05-08T03:41:47.989Z,16.25
2023-05-08T03:44:54.151Z,16.80
2023-05-08T03:48:00.327Z,17.15
2023-05-08T03:51:03.838Z,16.95
2023-05-08T03:54:06.642Z,15.32
2023-05-08T03:57:09.497Z,16.20
2023-05-08T04:00:48.334Z,16.98
2023-05-08T04:04:18.166Z,15.37
2023-05-08T04:07:42.846Z,17.40
2023-05-08T04:11:11.800Z,15.55
2023-05-08T04:14:17.147Z,16.40
2023-05-08T04:17:32.988Z,16.90
2023-05-08T04:20:36.095Z,15.23
2023-05-08T04:23:41.457Z,16.65
2023-05-08T04:26:45.341Z,15.60
2023-05-08T04:29:48.020Z,15.80
2023-05-08T04:32:51.461Z,16.40
2023-05-08T04:35:54.311Z,16.98
2023-05-08T04:38:59.098Z,16.10
2023-05-08T04:42:03.909Z,15.80
2023-05-08T04:45:09.029Z,16.35
2023-05-08T04:48:10.980Z,16.00
2023-05-08T04:51:12.758Z,16.35
2023-05-08T04:54:15.530Z,17.17
2023-05-08T04:57:17.471Z,16.13
2023-05-08T05:00:20.176Z,16.33
2023-05-08T05:03:22.073Z,16.02
2023-05-08T05:06:24.107Z,18.60
2023-05-08T05:09:25.944Z,15.93
2023-05-08T05:12:28.092Z,17.25
2023-05-08T05:15:30.317Z,16.60
2023-05-08T05:18:32.000Z,16.10
2023-05-08T05:21:34.481Z,16.17
2023-05-08T05:24:36.268Z,17.95
2023-05-08T05:27:38.622Z,17.93
2023-05-08T05:30:42.023Z,18.13
2023-05-08T05:33:44.379Z,19.27
2023-05-08T05:36:45.932Z,17.77
2023-05-08T05:39:48.223Z,15.45
2023-05-08T05:42:51.121Z,17.42
2023-05-08T05:45:56.010Z,16.27
2023-05-08T05:48:59.226Z,17.67
2023-05-08T05:52:01.820Z,16.55
2023-05-08T05:55:04.810Z,17.67
2023-05-08T05:58:07.051Z,18.88
2023-05-08T06:01:10.961Z,15.97
2023-05-08T06:04:13.160Z,17.23
2023-05-08T06:07:14.818Z,15.70
2023-05-08T06:10:16.562Z,17.48
2023-05-08T06:13:18.315Z,18.00
2023-05-08T06:16:23.023Z,17.95
2023-05-08T06:19:25.356Z,16.50
2023-05-08T06:22:27.517Z,17.48
2023-05-08T06:25:30.923Z,17.00
2023-05-08T06:28:32.972Z,17.92
2023-05-08T06:31:34.638Z,19.48
2023-05-08T06:34:36.808Z,16.33
2023-05-08T06:37:38.882Z,20.63
2023-05-08T06:40:45.037Z,20.73
2023-05-08T06:43:46.592Z,20.00
2023-05-08T06:46:48.383Z,17.90
2023-05-08T06:49:50.344Z,16.83
2023-05-08T06:52:52.394Z,16.83
2023-05-08T06:55:54.455Z,18.08
2023-05-08T06:59:04.964Z,18.40
2023-05-08T07:02:10.554Z,16.77
2023-05-08T07:05:13.675Z,18.27
2023-05-08T07:08:15.962Z,16.17
2023-05-08T07:11:18.013Z,15.27
2023-05-08T07:14:19.602Z,16.43
2023-05-08T07:17:21.883Z,16.75
2023-05-08T07:20:24.926Z,16.42
2023-05-08T07:23:27.542Z,16.38
2023-05-08T07:26:29.629Z,17.55
2023-05-08T07:29:31.768Z,17.50
2023-05-08T07:32:34.120Z,18.27
2023-05-08T07:35:40.929Z,17.60
2023-05-08T07:38:43.008Z,18.67
2023-05-08T07:41:47.122Z,17.23
2023-05-08T07:44:54.765Z,18.73
2023-05-08T07:47:59.333Z,17.40
2023-05-08T07:51:02.010Z,16.90
2023-05-08T07:54:03.678Z,17.92
2023-05-08T07:57:05.936Z,21.88
2023-05-08T08:00:09.903Z,18.52
2023-05-08T08:03:18.704Z,16.00
2023-05-08T08:06:20.378Z,16.77
2023-05-08T08:09:22.976Z,17.05
2023-05-08T08:12:25.011Z,18.48
2023-05-08T08:15:28.602Z,17.43
2023-05-08T08:18:31.088Z,17.70
2023-05-08T08:21:33.148Z,18.42
2023-05-08T08:24:35.517Z,19.95
2023-05-08T08:27:37.591Z,18.00
2023-05-08T08:30:39.597Z,18.65
2023-05-08T08:33:41.727Z,19.15
2023-05-08T08:36:44.443Z,19.17
2023-05-08T08:39:46.100Z,16.95
2023-05-08T08:42:48.294Z,18.27
2023-05-08T08:45:50.361Z,21.17
2023-05-08T08:48:55.932Z,20.25
2023-05-08T08:52:02.279Z,19.10
2023-05-08T08:55:08.427Z,17.88
2023-05-08T08:58:10.579Z,18.30
2023-05-08T09:01:17.494Z,18.17
2023-05-08T09:04:19.722Z,19.52
2023-05-08T09:07:23.053Z,18.88
2023-05-08T09:10:25.170Z,19.90
2023-05-08T09:13:26.916Z,17.30
2023-05-08T09:16:28.769Z,18.25
2023-05-08T09:19:32.023Z,19.23
2023-05-08T09:22:36.350Z,19.90
2023-05-08T09:25:46.189Z,20.08
2023-05-08T09:28:48.360Z,18.23
2023-05-08T09:31:52.714Z,19.45
2023-05-08T09:34:54.912Z,19.05
2023-05-08T09:37:57.377Z,18.23
2023-05-08T09:41:11.306Z,20.38
2023-05-08T09:44:13.344Z,18.17
2023-05-08T09:47:17.056Z,19.42
2023-05-08T09:50:20.107Z,20.45
2023-05-08T09:53:31.179Z,18.40
2023-05-08T09:56:34.277Z,18.58
2023-05-08T09:59:36.709Z,18.60
2023-05-08T10:02:41.376Z,19.63
2023-05-08T10:05:42.985Z,20.02
2023-05-08T10:08:46.535Z,19.63
2023-05-08T10:11:53.606Z,18.67
2023-05-08T10:14:56.516Z,19.17
2023-05-08T10:18:07.222Z,19.05
2023-05-08T10:21:09.323Z,18.23
2023-05-08T10:24:16.967Z,18.85
2023-05-08T10:27:28.618Z,21.48
2023-05-08T10:30:31.996Z,19.77
2023-05-08T10:33:35.854Z,18.88
2023-05-08T10:36:38.424Z,20.07
2023-05-08T10:39:41.793Z,18.83
2023-05-08T10:42:43.929Z,20.10
2023-05-08T10:45:46.473Z,22.63
2023-05-08T10:49:04.610Z,21.33
2023-05-08T10:52:40.280Z,19.38
2023-05-08T10:55:45.111Z,19.63
2023-05-08T10:58:56.422Z,19.27
2023-05-08T11:02:09.663Z,20.67
2023-05-08T11:05:16.790Z,20.83
2023-05-08T11:08:24.744Z,21.30
2023-05-08T11:11:34.130Z,23.00
2023-05-08T11:14:39.577Z,23.13
2023-05-08T11:17:46.710Z,22.20
2023-05-08T11:21:15.746Z,22.10
2023-05-08T11:24:17.831Z,22.05
2023-05-08T11:27:45.756Z,21.70
2023-05-08T11:30:47.362Z,22.30
2023-05-08T11:33:49.980Z,24.63
2023-05-08T11:37:02.194Z,23.13
2023-05-08T11:40:44.697Z,22.00
2023-05-08T11:44:15.717Z,24.70
2023-05-08T11:47:19.320Z,23.85
2023-05-08T11:50:21.451Z,21.10
2023-05-08T11:53:23.830Z,20.95
2023-05-08T11:56:26.557Z,22.23
2023-05-08T11:59:28.760Z,24.75
2023-05-08T12:02:41.809Z,22.60
2023-05-08T12:05:44.166Z,19.73
2023-05-08T12:08:45.787Z,20.52
2023-05-08T12:11:47.972Z,20.42
2023-05-08T12:14:51.284Z,20.35
2023-05-08T12:18:03.212Z,22.60
2023-05-08T12:21:05.353Z,19.90
2023-05-08T12:24:14.376Z,18.63
2023-05-08T12:27:16.130Z,17.80
2023-05-08T12:30:18.754Z,17.73
2023-05-08T12:33:21.773Z,18.02
2023-05-08T12:36:23.429Z,18.30
2023-05-08T12:39:26.045Z,16.10
2023-05-08T12:42:49.216Z,18.00
2023-05-08T12:45:52.706Z,18.73
2023-05-08T12:49:01.967Z,20.58
2023-05-08T12:52:09.856Z,17.80
2023-05-08T12:55:29.152Z,16.83
2023-05-08T12:58:33.383Z,18.25
2023-05-08T13:01:35.852Z,17.45
2023-05-08T13:04:38.516Z,15.05
2023-05-08T13:07:40.465Z,17.93
2023-05-08T13:10:50.326Z,18.38
2023-05-08T13:13:52.123Z,16.55
2023-05-08T13:16:53.880Z,17.13
2023-05-08T13:19:55.747Z,18.13
2023-05-08T13:22:58.077Z,17.87
2023-05-08T13:26:00.625Z,18.95
2023-05-08T13:29:02.444Z,16.25
2023-05-08T13:32:04.252Z,16.90
2023-05-08T13:35:06.357Z,15.77
2023-05-08T13:38:08.499Z,16.37
2023-05-08T13:41:10.619Z,16.15
2023-05-08T13:44:12.257Z,16.08
2023-05-08T13:47:14.407Z,14.00
2023-05-08T13:50:19.388Z,14.77
2023-05-08T13:53:21.533Z,15.93
2023-05-08T13:56:23.238Z,16.75
2023-05-08T13:59:25.408Z,16.33
2023-05-08T14:02:27.813Z,16.65
2023-05-08T14:05:30.023Z,18.50
2023-05-08T14:08:34.980Z,19.23
2023-05-08T14:11:36.775Z,19.58
2023-05-08T14:14:38.497Z,22.08
2023-05-08T14:17:40.401Z,19.98
2023-05-08T14:20:42.851Z,19.35
2023-05-08T14:23:47.295Z,21.23
2023-05-08T14:26:49.106Z,21.02
2023-05-08T14:29:50.819Z,22.60
2023-05-08T14:32:55.082Z,20.65
2023-05-08T14:35:56.714Z,20.52
2023-05-08T14:38:58.834Z,20.77
2023-05-08T14:45:09.475Z,20.55
2023-05-08T14:48:11.626Z,22.75
2023-05-08T14:51:14.233Z,22.17
2023-05-08T14:54:16.150Z,21.97
2023-05-08T14:57:17.891Z,22.80
2023-05-08T15:00:21.360Z,24.45
2023-05-08T15:03:26.330Z,21.27
2023-05-08T15:06:28.657Z,19.17
2023-05-08T15:09:30.375Z,17.83
2023-05-08T15:12:32.345Z,19.05
2023-05-08T15:15:34.574Z,17.35
2023-05-08T15:18:36.278Z,21.23
2023-05-08T15:21:38.430Z,18.83
2023-05-08T15:24:40.910Z,19.17
2023-05-08T15:27:42.912Z,17.58
2023-05-08T15:30:48.333Z,16.58
2023-05-08T15:33:50.432Z,15.25
2023-05-08T15:36:52.511Z,16.52
2023-05-08T15:39:55.050Z,17.27
2023-05-08T15:42:57.056Z,16.23
2023-05-08T15:45:59.236Z,17.35
2023-05-08T15:49:02.699Z,17.15
2023-05-08T15:52:04.789Z,16.23
2023-05-08T15:55:06.728Z,18.07
2023-05-08T15:58:08.354Z,16.63
2023-05-08T16:01:09.977Z,17.10
2023-05-08T16:04:13.192Z,16.23
2023-05-08T16:07:14.794Z,17.20
2023-05-08T16:10:17.433Z,15.80
2023-05-08T16:13:19.078Z,18.98
2023-05-08T16:16:21.402Z,21.95
2023-05-08T16:19:23.104Z,21.85
2023-05-08T16:22:26.064Z,18.90
2023-05-08T16:25:28.331Z,20.53
2023-05-08T16:28:30.575Z,19.20
2023-05-08T16:31:32.705Z,18.27
2023-05-08T16:34:35.306Z,19.95
2023-05-08T16:37:37.633Z,19.00
2023-05-08T16:40:39.409Z,18.57
2023-05-08T16:43:41.054Z,19.02
2023-05-08T16:46:43.159Z,21.67
2023-05-08T16:49:45.206Z,18.17
2023-05-08T16:52:47.372Z,18.77
2023-05-08T16:55:49.554Z,20.60
2023-05-08T17:01:55.407Z,21.08
2023-05-08T17:04:58.241Z,18.65
2023-05-08T17:08:00.533Z,18.52
2023-05-08T17:11:02.174Z,19.03
2023-05-08T17:14:03.789Z,18.63
2023-05-08T17:17:06.481Z,19.52
2023-05-08T17:20:08.654Z,18.35
2023-05-08T17:23:11.371Z,18.42
2023-05-08T17:26:13.067Z,18.67
2023-05-08T17:29:15.094Z,18.13
2023-05-08T17:32:16.716Z,19.17
2023-05-08T17:35:18.700Z,19.65
2023-05-08T17:38:22.590Z,21.10
2023-05-08T17:41:25.224Z,18.30
2023-05-08T17:44:27.087Z,19.25
2023-05-08T17:47:28.824Z,20.52
2023-05-08T17:50:30.577Z,20.33
2023-05-08T17:53:33.782Z,19.20
2023-05-08T17:56:35.452Z,19.07
2023-05-08T17:59:38.101Z,21.40
2023-05-08T18:02:39.817Z,21.98
2023-05-08T18:05:42.456Z,20.17
2023-05-08T18:08:45.865Z,21.20
2023-05-08T18:11:47.502Z,27.43
2023-05-08T18:14:49.258Z,24.45
2023-05-08T18:17:53.446Z,21.67
2023-05-08T18:20:55.653Z,22.40
2023-05-08T18:23:57.320Z,21.95
2023-05-08T18:26:59.631Z,21.87
2023-05-08T18:30:01.561Z,20.63
2023-05-08T18:33:03.751Z,22.00
2023-05-08T18:36:07.228Z,22.17
2023-05-08T18:39:09.030Z,21.05
2023-05-08T18:42:10.752Z,22.67
2023-05-08T18:45:12.543Z,20.92
2023-05-08T18:48:14.176Z,22.67
2023-05-08T18:51:15.832Z,20.77
2023-05-08T18:54:17.956Z,21.25
2023-05-08T18:57:19.662Z,23.83
2023-05-08T19:00:21.428Z,21.60
2023-05-08T19:03:26.946Z,21.80
2023-05-08T19:06:29.215Z,19.88
2023-05-08T19:09:30.817Z,21.73
2023-05-08T19:12:33.523Z,21.33
2023-05-08T19:15:35.145Z,21.98
2023-05-08T19:18:37.342Z,23.25
2023-05-08T19:21:39.418Z,22.05
2023-05-08T19:24:41.125Z,22.13
2023-05-08T19:27:42.750Z,24.53
2023-05-08T19:30:44.877Z,24.35
2023-05-08T19:33:48.642Z,24.02
2023-05-08T19:36:51.343Z,41.85
2023-05-08T19:39:53.035Z,34.83
2023-05-08T19:42:55.117Z,34.20
2023-05-08T19:45:57.173Z,29.17
2023-05-08T19:48:59.544Z,26.55
2023-05-08T19:52:01.650Z,24.45
2023-05-08T19:55:03.999Z,23.35
2023-05-08T19:58:06.209Z,23.97
2023-05-08T20:01:08.398Z,23.73
2023-05-08T20:04:10.598Z,24.25
2023-05-08T20:07:12.702Z,25.70
2023-05-08T20:10:15.125Z,23.02
2023-05-08T20:13:17.555Z,23.20
2023-05-08T20:16:19.296Z,22.48
2023-05-08T20:19:22.116Z,23.10
2023-05-08T20:22:23.835Z,24.27
2023-05-08T20:25:26.008Z,24.27
2023-05-08T20:28:28.819Z,23.07
2023-05-08T20:31:30.741Z,24.05
2023-05-08T20:34:32.752Z,23.15
2023-05-08T20:37:35.430Z,23.85
2023-05-08T20:40:37.020Z,22.75
2023-05-08T20:43:39.092Z,24.77
2023-05-08T20:46:42.056Z,24.50
2023-05-08T20:49:44.827Z,26.00
2023-05-08T20:52:46.575Z,26.42
2023-05-08T20:55:48.191Z,26.07
2023-05-08T20:58:49.724Z,25.75
2023-05-08T21:01:51.808Z,26.02
2023-05-08T21:04:53.980Z,26.33
2023-05-08T21:08:02.187Z,28.23
2023-05-08T21:11:04.441Z,29.63
2023-05-08T21:14:06.078Z,25.55
2023-05-08T21:17:07.664Z,25.30
2023-05-08T21:20:10.342Z,28.17
2023-05-08T21:23:12.650Z,24.33
2023-05-08T21:26:14.696Z,25.45
2023-05-08T21:29:16.271Z,24.88
2023-05-08T21:32:18.299Z,26.25
2023-05-08T21:35:20.665Z,26.55
2023-05-08T21:38:22.732Z,25.53
2023-05-08T21:41:24.551Z,25.10
2023-05-08T21:44:26.793Z,24.60
2023-05-08T21:47:28.504Z,24.15
2023-05-08T21:50:30.753Z,23.42
2023-05-08T21:53:33.182Z,25.08
2023-05-08T21:56:35.278Z,24.90
2023-05-08T21:59:37.424Z,23.30
2023-05-08T22:02:39.574Z,25.45
2023-05-08T22:05:41.743Z,23.55
2023-05-08T22:08:44.001Z,24.55
2023-05-08T22:11:45.607Z,26.33
2023-05-08T22:14:48.198Z,24.30
2023-05-08T22:17:50.689Z,24.95
2023-05-08T22:20:52.833Z,26.38
2023-05-08T22:23:55.409Z,25.10
2023-05-08T22:26:57.414Z,24.83
2023-05-08T22:30:01.368Z,25.67
2023-05-08T22:33:03.772Z,26.92
2023-05-08T22:36:06.240Z,28.10
2023-05-08T22:39:10.183Z,26.30
2023-05-08T22:42:12.250Z,24.50
2023-05-08T22:45:14.995Z,26.55
2023-05-08T22:48:16.811Z,24.10
2023-05-08T22:51:19.272Z,26.63
2023-05-08T22:54:21.417Z,27.25
2023-05-08T22:57:22.987Z,27.27
2023-05-08T23:00:24.536Z,27.83
2023-05-08T23:03:26.341Z,27.05
2023-05-08T23:06:27.953Z,29.42
2023-05-08T23:09:31.046Z,26.55
2023-05-08T23:12:33.121Z,29.37
2023-05-08T23:15:36.513Z,28.17
2023-05-08T23:18:38.916Z,29.02
2023-05-08T23:21:40.495Z,29.42
2023-05-08T23:24:43.063Z,26.50
2023-05-08T23:27:45.164Z,27.17
2023-05-08T23:30:46.722Z,28.80
2023-05-08T23:33:48.828Z,30.15
2023-05-08T23:36:51.217Z,26.90
2023-05-08T23:39:53.271Z,27.35
2023-05-08T23:42:54.998Z,28.10
2023-05-08T23:45:58.302Z,29.55
2023-05-08T23:49:00.533Z,28.73
2023-05-08T23:52:02.214Z,29.67
2023-05-08T23:55:04.452Z,27.60
2023-05-08T23:58:06.111Z,27.02
